createdAt,value
2019-05-16T00:03:48.900Z,58.50
2019-05-16T00:08:54.740Z,58.60
2019-05-16T00:14:00.006Z,58.50
2019-05-16T00:19:08.999Z,58.50
2019-05-16T00:24:15.361Z,58.50
2019-05-16T00:29:20.895Z,58.50
2019-05-16T00:35:02.908Z,58.40
2019-05-16T00:40:08.442Z,58.50
2019-05-16T00:45:15.445Z,58.30
2019-05-16T00:50:21.076Z,58.40
2019-05-16T00:55:28.277Z,58.40
2019-05-16T01:00:38.146Z,58.40
2019-05-16T01:05:45.270Z,58.30
2019-05-16T01:10:53.319Z,58.30
2019-05-16T01:15:58.320Z,58.40
2019-05-16T01:21:07.701Z,58.30
2019-05-16T01:26:12.188Z,58.30
2019-05-16T01:31:19.189Z,58.30
2019-05-16T01:36:36.131Z,58.30
2019-05-16T01:41:34.688Z,58.30
2019-05-16T01:46:39.947Z,58.30
2019-05-16T01:51:48.499Z,58.30
2019-05-16T01:56:55.992Z,58.30
2019-05-16T02:02:01.318Z,58.30
2019-05-16T02:07:08.570Z,58.30
2019-05-16T02:12:14.270Z,58.40
2019-05-16T02:17:19.977Z,58.30
2019-05-16T02:22:25.442Z,59.00
2019-05-16T02:27:30.650Z,58.30
2019-05-16T02:32:35.781Z,58.70
2019-05-16T02:37:42.929Z,58.30
2019-05-16T02:42:51.223Z,58.30
2019-05-16T02:47:54.816Z,58.30
2019-05-16T02:53:01.346Z,58.30
2019-05-16T02:58:07.053Z,58.30
2019-05-16T03:03:14.047Z,58.30
2019-05-16T03:08:20.903Z,58.30
2019-05-16T03:13:31.123Z,58.30
2019-05-16T03:18:35.496Z,58.30
2019-05-16T03:23:42.362Z,58.30
2019-05-16T03:28:47.709Z,58.30
2019-05-16T03:33:59.634Z,58.30
2019-05-16T03:39:01.296Z,58.40
2019-05-16T03:44:11.088Z,58.30
2019-05-16T03:49:14.522Z,58.30
2019-05-16T03:54:21.229Z,58.30
2019-05-16T03:59:27.785Z,58.20
2019-05-16T04:04:32.870Z,58.20
2019-05-16T04:09:40.864Z,58.20
2019-05-16T04:14:44.454Z,58.20
2019-05-16T04:19:50.897Z,58.20
2019-05-16T04:24:56.729Z,58.20
2019-05-16T04:30:02.343Z,58.10
2019-05-16T04:35:11.196Z,58.10
2019-05-16T04:40:15.425Z,58.10
2019-05-16T04:45:21.269Z,58.10
2019-05-16T04:50:26.485Z,58.10
2019-05-16T04:55:31.768Z,58.20
2019-05-16T05:00:37.417Z,58.30
2019-05-16T05:05:44.388Z,58.80
2019-05-16T05:10:51.412Z,60.20
2019-05-16T05:15:56.329Z,60.50
2019-05-16T05:21:01.999Z,61.80
2019-05-16T05:26:07.047Z,62.20
2019-05-16T05:31:12.086Z,62.70
2019-05-16T05:36:17.443Z,62.70
2019-05-16T05:41:22.385Z,63.20
2019-05-16T05:46:27.467Z,64.00
2019-05-16T05:51:32.319Z,65.40
2019-05-16T05:56:39.667Z,67.50
2019-05-16T06:01:44.032Z,66.80
2019-05-16T06:06:50.351Z,66.80
2019-05-16T06:11:55.551Z,67.00
2019-05-16T06:17:01.214Z,66.90
2019-05-16T06:22:06.301Z,66.50
2019-05-16T06:27:11.343Z,66.40
2019-05-16T06:32:16.583Z,66.40
2019-05-16T06:37:21.746Z,66.30
2019-05-16T06:42:29.711Z,66.10
2019-05-16T06:47:39.879Z,66.00
2019-05-16T06:52:50.020Z,65.20
2019-05-16T06:57:57.359Z,65.60
2019-05-16T07:03:03.451Z,65.90
2019-05-16T07:08:10.450Z,65.90
2019-05-16T07:13:19.665Z,66.00
2019-05-16T07:18:25.174Z,66.00
2019-05-16T07:23:30.531Z,66.00
2019-05-16T07:28:35.692Z,66.40
2019-05-16T07:33:43.654Z,66.00
2019-05-16T07:38:50.705Z,66.10
2019-05-16T07:44:01.052Z,66.70
2019-05-16T07:49:11.468Z,67.10
2019-05-16T07:54:21.941Z,67.20
2019-05-16T07:59:29.970Z,67.20
2019-05-16T08:04:35.576Z,67.20
2019-05-16T08:09:40.676Z,65.80
2019-05-16T08:14:50.068Z,67.70
2019-05-16T08:19:54.694Z,68.80
2019-05-16T08:25:03.882Z,69.00
2019-05-16T08:30:21.371Z,69.20
2019-05-16T08:35:31.611Z,69.60
2019-05-16T08:41:01.215Z,69.80
2019-05-16T08:45:52.272Z,69.90
2019-05-16T08:51:02.762Z,69.90
2019-05-16T08:56:05.617Z,69.90
2019-05-16T09:01:14.783Z,69.80
2019-05-16T09:06:22.508Z,69.80
2019-05-16T09:11:35.737Z,69.80
2019-05-16T09:16:37.085Z,69.80
2019-05-16T09:21:41.026Z,69.70
2019-05-16T09:26:48.032Z,69.60
2019-05-16T09:32:07.869Z,69.50
2019-05-16T09:37:03.790Z,69.30
2019-05-16T09:42:09.257Z,69.20
2019-05-16T09:47:17.363Z,69.00
2019-05-16T09:52:21.065Z,67.50
2019-05-16T09:57:27.798Z,68.40
2019-05-16T10:02:37.764Z,68.90
2019-05-16T10:07:50.470Z,69.20
2019-05-16T10:12:57.871Z,69.40
2019-05-16T10:18:07.534Z,69.50
2019-05-16T10:23:14.789Z,69.50
2019-05-16T10:28:23.808Z,69.40
2019-05-16T10:33:29.234Z,69.80
2019-05-16T10:38:37.417Z,70.10
2019-05-16T10:43:50.007Z,70.10
2019-05-16T10:48:57.821Z,70.00
2019-05-16T10:54:13.632Z,69.90
2019-05-16T10:59:53.090Z,70.50
2019-05-16T11:04:29.416Z,69.80
2019-05-16T11:09:28.174Z,69.80
2019-05-16T11:14:37.066Z,69.80
2019-05-16T11:19:43.715Z,69.60
2019-05-16T11:24:49.074Z,69.90
2019-05-16T11:29:57.750Z,69.50
2019-05-16T11:35:07.300Z,68.40
2019-05-16T11:40:12.143Z,69.60
2019-05-16T11:45:18.296Z,69.90
2019-05-16T11:50:23.404Z,69.90
2019-05-16T11:55:33.618Z,69.90
2019-05-16T12:00:37.331Z,69.90
2019-05-16T12:05:42.791Z,69.80
2019-05-16T12:10:47.883Z,69.80
2019-05-16T12:15:52.875Z,69.50
2019-05-16T12:20:58.688Z,69.50
2019-05-16T12:26:03.788Z,69.40
2019-05-16T12:31:10.740Z,69.30
2019-05-16T12:36:17.585Z,69.20
2019-05-16T12:41:22.975Z,69.10
2019-05-16T12:46:28.119Z,69.20
2019-05-16T12:51:33.269Z,69.00
2019-05-16T12:56:38.265Z,69.00
2019-05-16T13:01:48.142Z,68.80
2019-05-16T13:06:53.336Z,68.90
2019-05-16T13:11:58.226Z,69.20
2019-05-16T13:17:03.135Z,69.60
2019-05-16T13:22:08.349Z,69.60
2019-05-16T13:27:19.938Z,69.50
2019-05-16T13:32:20.158Z,69.40
2019-05-16T13:37:27.444Z,69.20
2019-05-16T13:42:32.373Z,69.10
2019-05-16T13:47:37.875Z,69.00
2019-05-16T13:52:47.787Z,68.90
2019-05-16T13:57:51.639Z,68.20
2019-05-16T14:02:58.362Z,68.70
2019-05-16T14:08:03.478Z,69.40
2019-05-16T14:13:08.596Z,69.50
2019-05-16T14:18:14.291Z,70.30
2019-05-16T14:23:20.176Z,69.50
2019-05-16T14:28:25.119Z,69.50
2019-05-16T14:33:36.808Z,69.40
2019-05-16T14:38:42.220Z,69.50
2019-05-16T14:43:47.793Z,69.40
2019-05-16T14:48:52.899Z,69.40
2019-05-16T14:53:57.794Z,69.40
2019-05-16T14:59:02.797Z,69.30
2019-05-16T15:04:08.281Z,69.20
2019-05-16T15:09:13.355Z,69.20
2019-05-16T15:14:18.488Z,69.20
2019-05-16T15:19:23.738Z,69.20
2019-05-16T15:24:28.899Z,69.20
2019-05-16T15:29:33.900Z,69.10
2019-05-16T15:34:38.778Z,69.10
2019-05-16T15:39:44.297Z,69.00
2019-05-16T15:44:49.398Z,69.10
2019-05-16T15:49:56.644Z,68.90
2019-05-16T15:55:03.277Z,68.90
2019-05-16T16:00:10.484Z,68.80
2019-05-16T16:05:17.621Z,68.80
2019-05-16T16:10:27.028Z,68.80
2019-05-16T16:15:32.598Z,68.70
2019-05-16T16:20:37.686Z,68.80
2019-05-16T16:25:42.998Z,68.60
2019-05-16T16:30:48.271Z,69.30
2019-05-16T16:35:53.634Z,68.60
2019-05-16T16:40:58.890Z,68.40
2019-05-16T16:46:09.167Z,68.40
2019-05-16T16:51:31.677Z,68.40
2019-05-16T16:56:37.205Z,68.30
2019-05-16T17:01:42.359Z,68.30
2019-05-16T17:06:47.686Z,68.30
2019-05-16T17:11:52.812Z,68.30
2019-05-16T17:16:58.224Z,68.30
2019-05-16T17:22:16.231Z,68.10
2019-05-16T17:27:09.860Z,68.10
2019-05-16T17:32:16.690Z,68.10
2019-05-16T17:37:21.916Z,68.50
2019-05-16T17:42:27.292Z,68.00
2019-05-16T17:47:33.983Z,67.90
2019-05-16T17:52:39.304Z,68.00
2019-05-16T17:57:44.651Z,67.80
2019-05-16T18:02:50.443Z,67.80
2019-05-16T18:07:56.418Z,67.80
2019-05-16T18:13:01.507Z,67.80
2019-05-16T18:18:07.209Z,68.60
2019-05-16T18:23:12.529Z,67.80
2019-05-16T18:28:17.680Z,67.80
2019-05-16T18:33:22.841Z,67.80
2019-05-16T18:38:28.376Z,67.80
2019-05-16T18:43:33.429Z,67.80
2019-05-16T18:48:38.381Z,68.70
2019-05-16T18:53:46.389Z,67.80
2019-05-16T18:58:50.722Z,67.70
2019-05-16T19:03:57.635Z,67.60
2019-05-16T19:09:02.955Z,67.70
2019-05-16T19:14:09.312Z,67.80
2019-05-16T19:19:16.590Z,67.70
2019-05-16T19:24:21.996Z,67.60
2019-05-16T19:29:27.037Z,67.60
2019-05-16T19:34:33.123Z,67.60
2019-05-16T19:39:38.322Z,67.60
2019-05-16T19:44:43.316Z,67.50
2019-05-16T19:49:48.992Z,67.50
2019-05-16T19:54:56.310Z,67.50
2019-05-16T20:00:00.851Z,67.40
2019-05-16T20:05:07.889Z,67.40
2019-05-16T20:10:13.507Z,67.30
2019-05-16T20:15:18.853Z,67.30
2019-05-16T20:20:23.832Z,67.30
2019-05-16T20:25:28.798Z,67.30
2019-05-16T20:30:33.926Z,67.30
2019-05-16T20:35:38.811Z,67.20
2019-05-16T20:40:46.603Z,67.10
2019-05-16T20:45:51.945Z,67.90
2019-05-16T20:50:57.066Z,67.00
2019-05-16T20:56:02.896Z,66.70
2019-05-16T21:01:08.087Z,67.00
2019-05-16T21:06:13.194Z,66.90
2019-05-16T21:11:18.244Z,66.90
2019-05-16T21:16:23.235Z,66.90
2019-05-16T21:21:28.374Z,66.80
2019-05-16T21:26:33.684Z,66.70
2019-05-16T21:31:40.253Z,66.70
2019-05-16T21:36:46.935Z,66.60
2019-05-16T21:41:52.138Z,66.60
2019-05-16T21:46:57.334Z,66.50
2019-05-16T21:52:03.747Z,66.60
2019-05-16T21:57:09.428Z,66.40
2019-05-16T22:02:16.793Z,66.30
2019-05-16T22:07:33.123Z,66.30
2019-05-16T22:12:31.757Z,66.20
2019-05-16T22:17:38.488Z,66.20
2019-05-16T22:22:43.789Z,66.10
2019-05-16T22:27:49.020Z,66.10
2019-05-16T22:32:54.206Z,66.10
2019-05-16T22:37:59.552Z,66.00
2019-05-16T22:43:09.717Z,65.90
2019-05-16T22:48:11.272Z,65.90
2019-05-16T22:53:17.238Z,65.80
2019-05-16T22:58:22.778Z,65.80
2019-05-16T23:03:29.283Z,65.80
2019-05-16T23:08:36.397Z,65.70
2019-05-16T23:13:40.934Z,65.70
2019-05-16T23:18:46.504Z,65.70
2019-05-16T23:23:52.122Z,65.50
2019-05-16T23:28:57.210Z,65.50
2019-05-16T23:34:02.698Z,65.50
2019-05-16T23:39:08.362Z,65.50
2019-05-16T23:44:13.511Z,65.50
2019-05-16T23:49:18.554Z,65.40
2019-05-16T23:54:23.552Z,65.40
2019-05-16T23:59:28.549Z,65.40
